createdAt,value
2018-08-31T00:02:08.357Z,2.90
2018-08-31T00:04:43.163Z,2.47
2018-08-31T00:07:15.819Z,2.60
2018-08-31T00:09:57.433Z,2.37
2018-08-31T00:12:40.357Z,2.47
2018-08-31T00:15:07.891Z,2.40
2018-08-31T00:17:35.562Z,2.67
2018-08-31T00:20:02.743Z,2.87
2018-08-31T00:22:29.827Z,2.60
2018-08-31T00:25:02.513Z,2.67
2018-08-31T00:27:35.138Z,2.67
2018-08-31T00:30:07.786Z,2.53
2018-08-31T00:32:40.521Z,2.30
2018-08-31T00:35:15.608Z,2.50
2018-08-31T00:39:53.393Z,2.63
2018-08-31T00:42:25.357Z,2.63
2018-08-31T00:45:55.905Z,2.73
2018-08-31T00:48:22.978Z,2.30
2018-08-31T00:50:50.209Z,2.47
2018-08-31T00:53:17.308Z,2.33
2018-08-31T00:55:44.409Z,2.70
2018-08-31T00:58:11.497Z,2.67
2018-08-31T01:00:38.598Z,2.30
2018-08-31T01:03:05.710Z,2.90
2018-08-31T01:05:32.797Z,2.80
2018-08-31T01:07:59.893Z,2.40
2018-08-31T01:10:27.020Z,2.63
2018-08-31T01:12:54.681Z,2.67
2018-08-31T01:15:21.777Z,2.40
2018-08-31T01:17:48.878Z,2.27
2018-08-31T01:20:15.980Z,3.17
2018-08-31T01:22:43.085Z,2.40
2018-08-31T01:25:10.782Z,2.57
2018-08-31T01:27:37.975Z,2.57
2018-08-31T01:30:05.286Z,2.27
2018-08-31T01:32:32.381Z,2.70
2018-08-31T01:34:59.480Z,2.73
2018-08-31T01:37:26.577Z,2.73
2018-08-31T01:39:53.657Z,3.07
2018-08-31T01:42:20.749Z,2.80
2018-08-31T01:44:47.833Z,2.40
2018-08-31T01:47:14.982Z,2.30
2018-08-31T01:49:45.776Z,2.73
2018-08-31T01:52:12.873Z,2.50
2018-08-31T01:54:39.970Z,2.80
2018-08-31T01:57:07.408Z,2.73
2018-08-31T01:59:34.505Z,2.93
2018-08-31T02:02:01.598Z,2.87
2018-08-31T02:04:28.689Z,2.60
2018-08-31T02:06:55.803Z,3.03
2018-08-31T02:09:22.897Z,2.80
2018-08-31T02:11:50.989Z,2.67
2018-08-31T02:14:18.116Z,3.00
2018-08-31T02:16:45.248Z,2.67
2018-08-31T02:19:12.361Z,2.40
2018-08-31T02:21:39.469Z,2.87
2018-08-31T02:24:06.581Z,2.70
2018-08-31T02:26:33.686Z,2.67
2018-08-31T02:29:01.307Z,2.33
2018-08-31T02:31:28.416Z,2.70
2018-08-31T02:33:55.500Z,2.50
2018-08-31T02:36:22.914Z,2.90
2018-08-31T02:38:50.269Z,2.20
2018-08-31T02:41:17.470Z,3.00
2018-08-31T02:43:45.633Z,2.70
2018-08-31T02:46:12.765Z,2.60
2018-08-31T02:48:39.872Z,2.60
2018-08-31T02:51:06.950Z,2.90
2018-08-31T02:53:34.041Z,3.00
2018-08-31T02:56:01.141Z,3.30
2018-08-31T02:58:28.318Z,3.23
2018-08-31T03:00:55.394Z,2.60
2018-08-31T03:03:22.516Z,2.87
2018-08-31T03:05:49.621Z,2.90
2018-08-31T03:08:16.728Z,3.07
2018-08-31T03:10:43.842Z,3.07
2018-08-31T03:13:10.975Z,2.97
2018-08-31T03:15:38.058Z,2.60
2018-08-31T03:18:05.154Z,3.10
2018-08-31T03:20:32.290Z,2.70
2018-08-31T03:22:59.385Z,2.93
2018-08-31T03:25:26.473Z,3.20
2018-08-31T03:27:53.652Z,2.90
2018-08-31T03:30:20.742Z,3.10
2018-08-31T03:32:47.828Z,3.40
2018-08-31T03:35:14.959Z,3.10
2018-08-31T03:37:42.035Z,3.60
2018-08-31T03:40:09.265Z,2.93
2018-08-31T03:42:36.352Z,2.80
2018-08-31T03:45:03.458Z,2.73
2018-08-31T03:47:30.546Z,2.80
2018-08-31T03:49:57.645Z,3.10
2018-08-31T03:52:24.734Z,3.03
2018-08-31T03:54:51.833Z,2.70
2018-08-31T03:57:19.039Z,2.80
2018-08-31T03:59:46.158Z,3.27
2018-08-31T04:02:13.266Z,3.00
2018-08-31T04:04:40.350Z,2.73
2018-08-31T04:07:07.441Z,2.90
2018-08-31T04:09:34.542Z,2.63
2018-08-31T04:12:01.640Z,2.33
2018-08-31T04:14:28.722Z,2.80
2018-08-31T04:16:55.798Z,3.03
2018-08-31T04:19:22.888Z,3.23
2018-08-31T04:21:49.977Z,3.40
2018-08-31T04:24:17.251Z,2.97
2018-08-31T04:26:45.039Z,2.90
2018-08-31T04:29:12.618Z,2.57
2018-08-31T04:31:40.157Z,2.73
2018-08-31T04:34:07.804Z,2.80
2018-08-31T04:36:34.830Z,2.90
2018-08-31T04:39:01.930Z,3.20
2018-08-31T04:41:29.017Z,3.17
2018-08-31T04:43:56.206Z,3.33
2018-08-31T04:46:23.311Z,2.87
2018-08-31T04:48:50.450Z,2.60
2018-08-31T04:51:17.537Z,3.23
2018-08-31T04:53:44.653Z,3.20
2018-08-31T04:56:11.742Z,2.83
2018-08-31T04:58:38.870Z,3.40
2018-08-31T05:01:06.193Z,2.90
2018-08-31T05:03:33.306Z,3.17
2018-08-31T05:06:00.414Z,2.83
2018-08-31T05:08:27.510Z,2.83
2018-08-31T05:10:54.633Z,3.07
2018-08-31T05:13:21.804Z,3.00
2018-08-31T05:15:48.893Z,2.73
2018-08-31T05:18:16.357Z,2.90
2018-08-31T05:20:43.449Z,2.83
2018-08-31T05:23:10.608Z,3.53
2018-08-31T05:25:37.622Z,3.23
2018-08-31T05:28:04.961Z,3.07
2018-08-31T05:30:32.053Z,3.20
2018-08-31T05:32:59.484Z,3.33
2018-08-31T05:35:26.621Z,3.40
2018-08-31T05:37:53.683Z,3.30
2018-08-31T05:40:20.774Z,3.00
2018-08-31T05:42:47.906Z,3.53
2018-08-31T05:45:14.978Z,3.43
2018-08-31T05:47:44.917Z,3.50
2018-08-31T05:50:12.078Z,3.23
2018-08-31T05:52:39.165Z,3.77
2018-08-31T05:55:06.677Z,3.37
2018-08-31T05:57:36.696Z,3.43
2018-08-31T06:00:05.364Z,3.70
2018-08-31T06:02:32.791Z,3.60
2018-08-31T06:05:02.278Z,3.40
2018-08-31T06:07:36.426Z,3.60
2018-08-31T06:10:04.810Z,3.27
2018-08-31T06:12:31.953Z,3.53
2018-08-31T06:14:59.070Z,3.53
2018-08-31T06:17:31.199Z,3.10
2018-08-31T06:20:01.719Z,3.33
2018-08-31T06:22:28.947Z,3.30
2018-08-31T06:24:56.053Z,3.60
2018-08-31T06:27:23.162Z,3.27
2018-08-31T06:29:50.953Z,2.93
2018-08-31T06:32:18.268Z,3.10
2018-08-31T06:34:46.276Z,3.20
2018-08-31T06:37:13.638Z,3.40
2018-08-31T06:39:40.971Z,3.60
2018-08-31T06:42:08.074Z,3.50
2018-08-31T06:44:35.197Z,3.60
2018-08-31T06:47:02.778Z,3.70
2018-08-31T06:49:29.902Z,2.87
2018-08-31T06:51:57.079Z,3.30
2018-08-31T06:54:24.254Z,3.40
2018-08-31T06:56:53.349Z,3.67
2018-08-31T06:59:20.503Z,3.30
2018-08-31T07:01:47.708Z,3.60
2018-08-31T07:04:14.811Z,3.50
2018-08-31T07:06:41.949Z,3.60
2018-08-31T07:09:11.258Z,3.57
2018-08-31T07:11:38.421Z,3.20
2018-08-31T07:14:05.785Z,3.73
2018-08-31T07:16:32.978Z,3.57
2018-08-31T07:19:03.260Z,3.13
2018-08-31T07:21:30.911Z,2.50
2018-08-31T07:24:00.012Z,2.80
2018-08-31T07:26:27.430Z,2.80
2018-08-31T07:28:54.699Z,2.60
2018-08-31T07:31:21.888Z,2.40
2018-08-31T07:33:49.431Z,2.40
2018-08-31T07:36:16.768Z,2.53
2018-08-31T07:38:45.480Z,3.13
2018-08-31T07:41:13.529Z,2.80
2018-08-31T07:43:40.861Z,2.60
2018-08-31T07:46:09.184Z,2.43
2018-08-31T07:48:40.167Z,2.20
2018-08-31T07:51:07.501Z,2.07
2018-08-31T07:53:34.799Z,2.07
2018-08-31T07:56:03.198Z,1.70
2018-08-31T07:58:30.665Z,1.90
2018-08-31T08:00:57.830Z,2.07
2018-08-31T08:03:24.990Z,1.63
2018-08-31T08:05:52.081Z,1.87
2018-08-31T08:08:19.301Z,2.13
2018-08-31T08:10:46.403Z,1.90
2018-08-31T08:13:13.497Z,1.83
2018-08-31T08:15:40.635Z,1.63
2018-08-31T08:18:07.934Z,2.37
2018-08-31T08:20:35.047Z,1.70
2018-08-31T08:23:02.238Z,1.90
2018-08-31T08:25:29.318Z,2.00
2018-08-31T08:27:56.526Z,1.67
2018-08-31T08:30:23.613Z,1.73
2018-08-31T08:32:50.710Z,1.70
2018-08-31T08:35:17.792Z,2.10
2018-08-31T08:37:44.890Z,1.67
2018-08-31T08:40:12.070Z,1.50
2018-08-31T08:42:39.201Z,2.10
2018-08-31T08:45:06.395Z,1.50
2018-08-31T08:47:33.485Z,1.50
2018-08-31T08:50:00.582Z,1.50
2018-08-31T08:52:27.674Z,1.60
2018-08-31T08:54:54.762Z,1.93
2018-08-31T08:57:21.873Z,2.23
2018-08-31T08:59:48.965Z,1.63
2018-08-31T09:02:16.057Z,1.70
2018-08-31T09:04:43.154Z,1.67
2018-08-31T09:07:12.261Z,1.50
2018-08-31T09:09:39.349Z,1.77
2018-08-31T09:12:06.513Z,1.57
2018-08-31T09:14:33.622Z,1.87
2018-08-31T09:17:00.735Z,2.20
2018-08-31T09:19:27.817Z,1.63
2018-08-31T09:21:54.947Z,1.70
2018-08-31T09:24:22.046Z,1.40
2018-08-31T09:26:49.143Z,1.80
2018-08-31T09:29:18.254Z,1.70
2018-08-31T09:31:45.378Z,1.57
2018-08-31T09:34:12.465Z,1.87
2018-08-31T09:36:39.573Z,2.13
2018-08-31T09:39:07.437Z,1.33
2018-08-31T09:41:34.509Z,1.80
2018-08-31T09:44:01.690Z,1.67
2018-08-31T09:46:28.685Z,1.40
2018-08-31T09:48:55.773Z,1.90
2018-08-31T09:51:22.870Z,1.70
2018-08-31T09:53:49.949Z,1.50
2018-08-31T09:56:17.028Z,1.90
2018-08-31T09:58:44.235Z,1.40
2018-08-31T10:01:16.917Z,1.60
2018-08-31T10:03:44.005Z,1.57
2018-08-31T10:06:11.106Z,1.90
2018-08-31T10:08:38.216Z,1.63
2018-08-31T10:11:05.322Z,2.40
2018-08-31T10:13:32.405Z,1.60
2018-08-31T10:15:59.505Z,1.60
2018-08-31T10:18:26.610Z,1.80
2018-08-31T10:20:54.180Z,1.90
2018-08-31T10:23:21.283Z,2.03
2018-08-31T10:25:48.488Z,1.83
2018-08-31T10:28:15.569Z,1.77
2018-08-31T10:30:46.614Z,1.67
2018-08-31T10:33:13.779Z,1.30
2018-08-31T10:35:40.870Z,1.37
2018-08-31T10:38:07.961Z,1.50
2018-08-31T10:40:35.063Z,1.47
2018-08-31T10:43:02.174Z,1.50
2018-08-31T10:45:29.270Z,1.80
2018-08-31T10:47:56.509Z,1.40
2018-08-31T10:50:23.584Z,1.50
2018-08-31T10:52:50.997Z,1.27
2018-08-31T10:55:18.094Z,1.40
2018-08-31T10:57:45.188Z,1.50
2018-08-31T11:00:12.382Z,1.47
2018-08-31T11:02:41.745Z,1.40
2018-08-31T11:05:11.094Z,1.37
2018-08-31T11:07:38.429Z,1.27
2018-08-31T11:10:06.643Z,1.23
2018-08-31T11:12:33.786Z,1.20
2018-08-31T11:15:01.361Z,1.20
2018-08-31T11:17:28.426Z,1.20
2018-08-31T11:19:55.616Z,1.20
2018-08-31T11:22:22.777Z,1.23
2018-08-31T11:24:49.881Z,1.37
2018-08-31T11:27:16.995Z,1.37
2018-08-31T11:29:44.117Z,1.40
2018-08-31T11:32:11.246Z,1.30
2018-08-31T11:34:38.375Z,1.63
2018-08-31T11:37:05.661Z,1.47
2018-08-31T11:39:32.745Z,1.30
2018-08-31T11:41:59.872Z,1.40
2018-08-31T11:44:26.962Z,1.10
2018-08-31T11:46:54.057Z,1.30
2018-08-31T11:49:21.145Z,1.40
2018-08-31T11:51:48.238Z,1.40
2018-08-31T11:54:15.330Z,1.60
2018-08-31T11:56:42.438Z,1.30
2018-08-31T11:59:09.530Z,1.33
2018-08-31T12:01:38.730Z,1.80
2018-08-31T12:04:05.938Z,1.67
2018-08-31T12:06:33.031Z,1.20
2018-08-31T12:09:00.226Z,1.50
2018-08-31T12:11:27.322Z,1.20
2018-08-31T12:13:54.422Z,1.30
2018-08-31T12:16:22.377Z,1.20
2018-08-31T12:18:49.473Z,1.50
2018-08-31T12:21:16.567Z,1.40
2018-08-31T12:23:43.672Z,1.67
2018-08-31T12:26:11.027Z,1.80
2018-08-31T12:28:38.122Z,1.37
2018-08-31T12:31:05.379Z,1.67
2018-08-31T12:33:32.473Z,1.43
2018-08-31T12:35:59.615Z,1.50
2018-08-31T12:38:26.650Z,1.80
2018-08-31T12:40:53.746Z,1.57
2018-08-31T12:43:20.918Z,1.40
2018-08-31T12:45:48.044Z,1.70
2018-08-31T12:48:15.142Z,1.60
2018-08-31T12:50:42.235Z,1.73
2018-08-31T12:53:09.321Z,1.67
2018-08-31T12:55:36.430Z,1.67
2018-08-31T12:58:03.602Z,2.00
2018-08-31T13:00:30.702Z,1.90
2018-08-31T13:02:57.979Z,1.70
2018-08-31T13:05:25.083Z,1.30
2018-08-31T13:07:52.228Z,1.70
2018-08-31T13:10:19.398Z,1.63
2018-08-31T13:12:46.489Z,1.70
2018-08-31T13:15:13.881Z,1.60
2018-08-31T13:17:40.980Z,1.70
2018-08-31T13:20:08.159Z,1.80
2018-08-31T13:22:35.305Z,1.47
2018-08-31T13:25:02.597Z,1.70
2018-08-31T13:27:29.648Z,1.70
2018-08-31T13:29:56.737Z,1.63
2018-08-31T13:32:23.895Z,1.70
2018-08-31T13:34:50.982Z,1.40
2018-08-31T13:37:18.083Z,1.70
2018-08-31T13:39:45.188Z,1.43
2018-08-31T13:42:12.481Z,1.70
2018-08-31T13:44:39.745Z,1.60
2018-08-31T13:47:06.814Z,1.90
2018-08-31T13:49:33.954Z,1.67
2018-08-31T13:52:01.150Z,1.57
2018-08-31T13:54:28.290Z,2.00
2018-08-31T13:56:55.401Z,1.60
2018-08-31T13:59:22.557Z,1.80
2018-08-31T14:01:50.290Z,2.13
2018-08-31T14:04:17.614Z,1.80
2018-08-31T14:06:45.022Z,1.80
2018-08-31T14:09:12.290Z,1.67
2018-08-31T14:11:40.917Z,1.70
2018-08-31T14:14:09.867Z,1.70
2018-08-31T14:16:38.957Z,1.90
2018-08-31T14:19:06.870Z,1.87
2018-08-31T14:21:34.213Z,1.80
2018-08-31T14:24:01.386Z,1.50
2018-08-31T14:26:28.768Z,1.93
2018-08-31T14:28:55.867Z,1.80
2018-08-31T14:31:22.964Z,1.60
2018-08-31T14:33:50.058Z,1.67
2018-08-31T14:36:17.162Z,1.57
2018-08-31T14:38:44.326Z,1.50
2018-08-31T14:41:11.659Z,1.70
2018-08-31T14:43:38.829Z,1.73
2018-08-31T14:46:06.146Z,1.30
2018-08-31T14:48:33.268Z,1.90
2018-08-31T14:51:00.482Z,1.60
2018-08-31T14:53:27.609Z,1.57
2018-08-31T14:55:54.893Z,1.90
2018-08-31T14:58:22.137Z,1.90
2018-08-31T15:00:49.262Z,1.67
2018-08-31T15:03:17.015Z,1.60
2018-08-31T15:05:44.279Z,1.83
2018-08-31T15:08:11.379Z,1.97
2018-08-31T15:10:39.534Z,1.90
2018-08-31T15:13:06.750Z,2.07
2018-08-31T15:15:33.902Z,2.07
2018-08-31T15:18:01.058Z,2.17
2018-08-31T15:20:28.174Z,2.03
2018-08-31T15:22:55.318Z,2.10
2018-08-31T15:25:22.430Z,2.03
2018-08-31T15:27:49.520Z,1.90
2018-08-31T15:30:16.626Z,3.00
2018-08-31T15:32:43.751Z,2.03
2018-08-31T15:35:10.846Z,1.90
2018-08-31T15:37:38.010Z,1.90
2018-08-31T15:40:05.110Z,1.80
2018-08-31T15:42:32.241Z,2.00
2018-08-31T15:44:59.321Z,1.93
2018-08-31T15:47:26.522Z,1.97
2018-08-31T15:49:53.714Z,2.00
2018-08-31T15:52:20.706Z,2.10
2018-08-31T15:54:47.814Z,2.00
2018-08-31T15:57:14.937Z,2.00
2018-08-31T15:59:42.077Z,1.80
2018-08-31T16:02:09.350Z,1.90
2018-08-31T16:04:36.473Z,2.10
2018-08-31T16:07:03.557Z,2.00
2018-08-31T16:09:30.713Z,1.90
2018-08-31T16:11:57.801Z,1.97
2018-08-31T16:14:24.909Z,1.70
2018-08-31T16:16:52.010Z,1.77
2018-08-31T16:19:19.219Z,2.17
2018-08-31T16:21:46.551Z,1.87
2018-08-31T16:24:13.673Z,1.80
2018-08-31T16:26:40.773Z,2.20
2018-08-31T16:29:07.916Z,2.57
2018-08-31T16:31:35.028Z,2.37
2018-08-31T16:34:02.256Z,1.90
2018-08-31T16:36:29.351Z,2.13
2018-08-31T16:38:56.519Z,2.20
2018-08-31T16:41:23.546Z,1.90
2018-08-31T16:43:50.641Z,2.23
2018-08-31T16:46:17.741Z,2.40
2018-08-31T16:48:44.841Z,2.30
2018-08-31T16:51:11.965Z,2.40
2018-08-31T16:53:39.057Z,2.17
2018-08-31T16:56:06.622Z,2.27
2018-08-31T16:58:33.734Z,2.50
2018-08-31T17:01:00.822Z,2.60
2018-08-31T17:03:27.926Z,2.50
2018-08-31T17:05:55.013Z,2.30
2018-08-31T17:08:22.137Z,2.50
2018-08-31T17:10:49.256Z,2.60
2018-08-31T17:13:16.391Z,2.73
2018-08-31T17:15:43.751Z,2.40
2018-08-31T17:18:10.850Z,3.07
2018-08-31T17:20:37.940Z,2.47
2018-08-31T17:23:05.053Z,2.70
2018-08-31T17:25:32.149Z,2.90
2018-08-31T17:28:04.728Z,2.30
2018-08-31T17:30:31.828Z,2.40
2018-08-31T17:34:08.434Z,2.37
2018-08-31T17:36:41.135Z,2.50
2018-08-31T17:39:09.101Z,2.50
2018-08-31T17:41:36.185Z,2.23
2018-08-31T17:44:03.452Z,2.17
2018-08-31T17:46:30.603Z,2.03
2018-08-31T17:48:57.630Z,2.40
2018-08-31T17:51:24.785Z,2.37
2018-08-31T17:53:52.069Z,2.30
2018-08-31T17:56:20.179Z,3.00
2018-08-31T17:58:47.255Z,4.17
2018-08-31T18:01:14.341Z,4.20
2018-08-31T18:03:41.452Z,3.23
2018-08-31T18:06:08.574Z,3.17
2018-08-31T18:08:35.674Z,2.93
2018-08-31T18:11:02.779Z,3.23
2018-08-31T18:13:29.861Z,3.20
2018-08-31T18:15:57.252Z,2.67
2018-08-31T18:18:24.573Z,2.60
2018-08-31T18:20:51.682Z,2.60
2018-08-31T18:23:18.794Z,2.20
2018-08-31T18:25:46.900Z,2.63
2018-08-31T18:28:14.018Z,3.47
2018-08-31T18:30:41.688Z,4.40
2018-08-31T18:33:08.972Z,3.37
2018-08-31T18:35:36.066Z,2.43
2018-08-31T18:38:03.079Z,2.57
2018-08-31T18:40:30.429Z,2.40
2018-08-31T18:42:57.904Z,2.60
2018-08-31T18:45:25.297Z,3.20
2018-08-31T18:47:52.405Z,2.60
2018-08-31T18:50:19.518Z,2.77
2018-08-31T18:52:46.622Z,2.40
2018-08-31T18:55:13.790Z,2.50
2018-08-31T18:57:40.884Z,2.70
2018-08-31T19:00:08.055Z,3.27
2018-08-31T19:02:35.436Z,2.70
2018-08-31T19:05:02.553Z,2.80
2018-08-31T19:07:29.666Z,2.60
2018-08-31T19:09:56.786Z,3.00
2018-08-31T19:12:30.235Z,2.47
2018-08-31T19:14:57.418Z,2.77
2018-08-31T19:17:24.728Z,2.50
2018-08-31T19:19:51.829Z,2.47
2018-08-31T19:22:19.006Z,2.67
2018-08-31T19:24:46.191Z,2.30
2018-08-31T19:27:13.929Z,2.40
2018-08-31T19:29:41.034Z,2.93
2018-08-31T19:32:09.005Z,2.50
2018-08-31T19:34:36.230Z,2.50
2018-08-31T19:37:03.318Z,2.40
2018-08-31T19:39:30.492Z,2.70
2018-08-31T19:41:57.590Z,2.40
2018-08-31T19:44:24.707Z,2.70
2018-08-31T19:46:51.825Z,2.70
2018-08-31T19:49:18.913Z,3.50
2018-08-31T19:51:46.007Z,3.10
2018-08-31T19:54:13.114Z,3.07
2018-08-31T19:56:40.200Z,2.53
2018-08-31T19:59:07.372Z,3.10
2018-08-31T20:01:34.493Z,2.37
2018-08-31T20:04:01.573Z,2.30
2018-08-31T20:06:28.736Z,2.60
2018-08-31T20:08:55.765Z,2.30
2018-08-31T20:11:22.865Z,2.77
2018-08-31T20:13:50.039Z,2.33
2018-08-31T20:16:17.111Z,2.73
2018-08-31T20:18:44.174Z,2.40
2018-08-31T20:21:11.283Z,2.00
2018-08-31T20:23:38.366Z,2.50
2018-08-31T20:26:05.489Z,2.60
2018-08-31T20:28:32.582Z,2.20
2018-08-31T20:30:59.771Z,2.10
2018-08-31T20:33:26.905Z,2.50
2018-08-31T20:35:54.000Z,2.40
2018-08-31T20:38:21.112Z,2.30
2018-08-31T20:40:48.199Z,2.37
2018-08-31T20:43:15.380Z,2.50
2018-08-31T20:45:42.455Z,2.60
2018-08-31T20:48:09.751Z,2.83
2018-08-31T20:50:36.842Z,2.60
2018-08-31T20:53:04.166Z,2.70
2018-08-31T20:55:31.509Z,2.30
2018-08-31T20:57:58.630Z,2.77
2018-08-31T21:00:25.730Z,2.80
2018-08-31T21:02:52.838Z,2.80
2018-08-31T21:05:19.967Z,2.40
2018-08-31T21:07:47.062Z,2.60
2018-08-31T21:10:14.166Z,2.50
2018-08-31T21:12:41.253Z,2.80
2018-08-31T21:15:08.352Z,2.53
2018-08-31T21:17:35.433Z,2.90
2018-08-31T21:20:02.562Z,2.70
2018-08-31T21:22:29.650Z,2.70
2018-08-31T21:24:56.741Z,2.77
2018-08-31T21:27:23.970Z,2.37
2018-08-31T21:29:51.045Z,2.60
2018-08-31T21:32:18.238Z,2.90
2018-08-31T21:34:45.236Z,2.43
2018-08-31T21:37:12.333Z,2.23
2018-08-31T21:39:39.421Z,2.30
2018-08-31T21:42:06.619Z,2.50
2018-08-31T21:44:33.597Z,2.63
2018-08-31T21:47:00.852Z,2.50
2018-08-31T21:49:27.988Z,2.77
2018-08-31T21:51:55.063Z,2.50
2018-08-31T21:54:22.167Z,2.83
2018-08-31T21:56:49.468Z,2.47
2018-08-31T21:59:16.568Z,2.50
2018-08-31T22:01:48.001Z,2.40
2018-08-31T22:04:15.096Z,2.43
2018-08-31T22:06:42.187Z,2.60
2018-08-31T22:09:10.105Z,2.77
2018-08-31T22:11:37.185Z,2.60
2018-08-31T22:14:04.280Z,2.30
2018-08-31T22:16:31.403Z,2.50
2018-08-31T22:18:58.516Z,2.40
2018-08-31T22:21:25.973Z,2.57
2018-08-31T22:23:53.215Z,2.37
2018-08-31T22:26:20.294Z,2.30
2018-08-31T22:28:47.379Z,2.13
2018-08-31T22:31:14.490Z,2.40
2018-08-31T22:33:41.581Z,2.00
2018-08-31T22:36:08.677Z,2.60
2018-08-31T22:38:35.756Z,2.30
2018-08-31T22:41:02.849Z,2.27
2018-08-31T22:43:35.467Z,2.40
2018-08-31T22:46:02.480Z,2.10
2018-08-31T22:48:29.586Z,2.03
2018-08-31T22:50:56.682Z,2.20
2018-08-31T22:53:23.783Z,2.07
2018-08-31T22:55:50.871Z,2.00
2018-08-31T22:58:17.973Z,2.20
2018-08-31T23:00:45.060Z,2.17
2018-08-31T23:03:12.153Z,2.20
2018-08-31T23:05:39.381Z,2.13
2018-08-31T23:08:06.458Z,2.20
2018-08-31T23:10:33.669Z,2.13
2018-08-31T23:13:01.076Z,1.80
2018-08-31T23:15:28.532Z,2.17
2018-08-31T23:17:55.654Z,2.10
2018-08-31T23:20:22.778Z,1.97
2018-08-31T23:22:49.867Z,2.23
2018-08-31T23:25:22.510Z,1.97
2018-08-31T23:27:49.600Z,2.47
2018-08-31T23:30:16.725Z,1.93
2018-08-31T23:32:43.847Z,2.10
2018-08-31T23:35:10.938Z,1.90
2018-08-31T23:37:38.026Z,2.27
2018-08-31T23:40:05.222Z,2.07
2018-08-31T23:42:32.302Z,2.20
2018-08-31T23:44:59.426Z,2.60
2018-08-31T23:47:26.508Z,1.90
2018-08-31T23:49:53.608Z,2.07
2018-08-31T23:52:20.703Z,1.90
2018-08-31T23:54:47.799Z,2.03
2018-08-31T23:57:14.889Z,2.10
2018-08-31T23:59:41.983Z,2.30
